Check out our new PWSWeather beta!
PWSweather.com
Personal Weather Stations
Station Observations
URBANDALE
Westwind Acres And Meredith Hills, Urbandale, IA 50322

Westwind Acres And Meredith HillsUrbandale, IA 50322

Lat: 41.643, Lon: -93.709

Elevation: 928

Station Type:

http://urbandaleweather.com

High Low Average
Temperature 26.8°F-2.9°C 19.2°F-7.1°C 23.5°F-4.7°C
Dew Point 24.3°F-4.3°C 7.5°F-13.6°C 18.3°F-7.6°C
Winds 2.9 mph 4.7 kmh Calm Calm 1.0 mph WSW1.6 kmh WSW
Wind Gusts 10.1 mph16.3 kmh -- 4.0 mph6.4 kmh
Humidity 92% 44% 82%
Pressure 30.02 in1016.6 mb 29.62 in1003.0 mb -
Precipitation 0.00 in0.0 mm - -
Hour Temp Dew Point Humidity Winds Wind Gusts Pressure Precip Precip Rate Daily Precip Total
12:01 AM 26.4°F-3.1°C 8.4°F-13.1°C 46% Calm Calm -- 29.63 in1003.4 mb 0.00 in0.0 mm 0.00 in0.0 mm 0.00 in0.0 mm
12:06 AM 26.4°F-3.1°C 8.4°F-13.1°C 46% Calm Calm 2.9 mph4.7 kmh 29.63 in1003.4 mb 0.00 in0.0 mm 0.00 in0.0 mm 0.00 in0.0 mm
12:11 AM 26.4°F-3.1°C 7.9°F-13.4°C 45% Calm Calm 2.0 mph3.2 kmh 29.63 in1003.4 mb 0.00 in0.0 mm 0.00 in0.0 mm 0.00 in0.0 mm
12:16 AM 26.4°F-3.1°C 7.9°F-13.4°C 45% Calm Calm 0.9 mph1.4 kmh 29.63 in1003.4 mb 0.00 in0.0 mm 0.00 in0.0 mm 0.00 in0.0 mm
12:21 AM 26.4°F-3.1°C 7.5°F-13.6°C 44% Calm Calm 3.0 mph4.8 kmh 29.63 in1003.4 mb 0.00 in0.0 mm 0.00 in0.0 mm 0.00 in0.0 mm
12:26 AM 26.4°F-3.1°C 7.9°F-13.4°C 45% Calm Calm 0.9 mph1.4 kmh 29.63 in1003.4 mb 0.00 in0.0 mm 0.00 in0.0 mm 0.00 in0.0 mm
12:31 AM 26.4°F-3.1°C 7.9°F-13.4°C 45% Calm Calm 0.9 mph1.4 kmh 29.63 in1003.4 mb 0.00 in0.0 mm 0.00 in0.0 mm 0.00 in0.0 mm
12:36 AM 26.4°F-3.1°C 7.5°F-13.6°C 44% Calm Calm 2.0 mph3.2 kmh 29.63 in1003.4 mb 0.00 in0.0 mm 0.00 in0.0 mm 0.00 in0.0 mm
12:41 AM 26.4°F-3.1°C 7.5°F-13.6°C 44% Calm Calm 2.0 mph3.2 kmh 29.63 in1003.4 mb 0.00 in0.0 mm 0.00 in0.0 mm 0.00 in0.0 mm
12:46 AM 26.6°F-3.0°C 7.7°F-13.5°C 44% Calm Calm 0.9 mph1.4 kmh 29.63 in1003.4 mb 0.00 in0.0 mm 0.00 in0.0 mm 0.00 in0.0 mm
12:51 AM 26.6°F-3.0°C 9.1°F-12.7°C 47% Calm Calm -- 29.63 in1003.4 mb 0.00 in0.0 mm 0.00 in0.0 mm 0.00 in0.0 mm
12:56 AM 26.6°F-3.0°C 8.6°F-13.0°C 46% Calm Calm 0.9 mph1.4 kmh 29.63 in1003.4 mb 0.00 in0.0 mm 0.00 in0.0 mm 0.00 in0.0 mm
01:01 AM 26.6°F-3.0°C 8.1°F-13.3°C 45% Calm Calm 2.0 mph3.2 kmh 29.63 in1003.4 mb 0.00 in0.0 mm 0.00 in0.0 mm 0.00 in0.0 mm
01:06 AM 26.6°F-3.0°C 7.7°F-13.5°C 44% Calm Calm 0.9 mph1.4 kmh 29.63 in1003.4 mb 0.00 in0.0 mm 0.00 in0.0 mm 0.00 in0.0 mm
01:11 AM 26.8°F-2.9°C 7.7°F-13.5°C 44% Calm Calm 2.0 mph3.2 kmh 29.63 in1003.4 mb 0.00 in0.0 mm 0.00 in0.0 mm 0.00 in0.0 mm
01:16 AM 26.8°F-2.9°C 8.2°F-13.2°C 45% Calm Calm 2.0 mph3.2 kmh 29.63 in1003.4 mb 0.00 in0.0 mm 0.00 in0.0 mm 0.00 in0.0 mm
01:21 AM 26.8°F-2.9°C 8.2°F-13.2°C 45% Calm Calm 2.9 mph4.7 kmh 29.63 in1003.4 mb 0.00 in0.0 mm 0.00 in0.0 mm 0.00 in0.0 mm
01:26 AM 26.8°F-2.9°C 8.2°F-13.2°C 45% Calm Calm 2.0 mph3.2 kmh 29.63 in1003.4 mb 0.00 in0.0 mm 0.00 in0.0 mm 0.00 in0.0 mm
01:31 AM 26.6°F-3.0°C 8.1°F-13.3°C 45% Calm Calm 2.9 mph4.7 kmh 29.63 in1003.4 mb 0.00 in0.0 mm 0.00 in0.0 mm 0.00 in0.0 mm
01:36 AM 26.6°F-3.0°C 9.1°F-12.7°C 47% 0.9 mph SE1.4 kmh SE 4.0 mph6.4 kmh 29.63 in1003.4 mb 0.00 in0.0 mm 0.00 in0.0 mm 0.00 in0.0 mm
01:41 AM 26.4°F-3.1°C 8.4°F-13.1°C 46% 0.9 mph SSW1.4 kmh SSW 2.9 mph4.7 kmh 29.63 in1003.4 mb 0.00 in0.0 mm 0.00 in0.0 mm 0.00 in0.0 mm
01:46 AM 26.4°F-3.1°C 9.0°F-12.8°C 47% Calm Calm 2.0 mph3.2 kmh 29.63 in1003.4 mb 0.00 in0.0 mm 0.00 in0.0 mm 0.00 in0.0 mm
01:51 AM 26.4°F-3.1°C 9.0°F-12.8°C 47% Calm Calm 2.9 mph4.7 kmh 29.63 in1003.4 mb 0.00 in0.0 mm 0.00 in0.0 mm 0.00 in0.0 mm
01:56 AM 26.4°F-3.1°C 9.3°F-12.6°C 48% 0.9 mph SSE1.4 kmh SSE 4.0 mph6.4 kmh 29.63 in1003.4 mb 0.00 in0.0 mm 0.00 in0.0 mm 0.00 in0.0 mm
02:01 AM 26.2°F-3.2°C 10.2°F-12.1°C 50% 0.9 mph SSW1.4 kmh SSW 2.9 mph4.7 kmh 29.63 in1003.4 mb 0.00 in0.0 mm 0.00 in0.0 mm 0.00 in0.0 mm
02:06 AM 26.2°F-3.2°C 10.2°F-12.1°C 50% Calm Calm 4.0 mph6.4 kmh 29.64 in1003.7 mb 0.00 in0.0 mm 0.00 in0.0 mm 0.00 in0.0 mm
02:11 AM 26.2°F-3.2°C 10.6°F-11.9°C 51% Calm Calm 2.0 mph3.2 kmh 29.63 in1003.4 mb 0.00 in0.0 mm 0.00 in0.0 mm 0.00 in0.0 mm
02:16 AM 26.2°F-3.2°C 11.5°F-11.4°C 53% Calm Calm 0.9 mph1.4 kmh 29.64 in1003.7 mb 0.00 in0.0 mm 0.00 in0.0 mm 0.00 in0.0 mm
02:21 AM 26.2°F-3.2°C 11.5°F-11.4°C 53% Calm Calm 0.9 mph1.4 kmh 29.64 in1003.7 mb 0.00 in0.0 mm 0.00 in0.0 mm 0.00 in0.0 mm
02:26 AM 26.2°F-3.2°C 11.8°F-11.2°C 54% Calm Calm 0.9 mph1.4 kmh 29.64 in1003.7 mb 0.00 in0.0 mm 0.00 in0.0 mm 0.00 in0.0 mm
02:31 AM 26.2°F-3.2°C 11.5°F-11.4°C 53% Calm Calm 2.0 mph3.2 kmh 29.64 in1003.7 mb 0.00 in0.0 mm 0.00 in0.0 mm 0.00 in0.0 mm
02:36 AM 26.1°F-3.3°C 12.0°F-11.1°C 55% Calm Calm 0.9 mph1.4 kmh 29.64 in1003.7 mb 0.00 in0.0 mm 0.00 in0.0 mm 0.00 in0.0 mm
02:41 AM 25.9°F-3.4°C 12.7°F-10.7°C 57% Calm Calm 2.0 mph3.2 kmh 29.64 in1003.7 mb 0.00 in0.0 mm 0.00 in0.0 mm 0.00 in0.0 mm
02:46 AM 25.7°F-3.5°C 13.8°F-10.1°C 60% Calm Calm 0.9 mph1.4 kmh 29.64 in1003.7 mb 0.00 in0.0 mm 0.00 in0.0 mm 0.00 in0.0 mm
02:51 AM 25.5°F-3.6°C 15.1°F-9.4°C 64% Calm Calm -- 29.64 in1003.7 mb 0.00 in0.0 mm 0.00 in0.0 mm 0.00 in0.0 mm
02:56 AM 25.3°F-3.7°C 16.5°F-8.6°C 69% Calm Calm 3.0 mph4.8 kmh 29.64 in1003.7 mb 0.00 in0.0 mm 0.00 in0.0 mm 0.00 in0.0 mm
03:01 AM 25.0°F-3.9°C 17.6°F-8.0°C 73% 0.9 mph SSW1.4 kmh SSW 2.9 mph4.7 kmh 29.64 in1003.7 mb 0.00 in0.0 mm 0.00 in0.0 mm 0.00 in0.0 mm
03:06 AM 24.8°F-4.0°C 18.0°F-7.8°C 75% 0.9 mph S1.4 kmh S 2.9 mph4.7 kmh 29.63 in1003.4 mb 0.00 in0.0 mm 0.00 in0.0 mm 0.00 in0.0 mm
03:11 AM 24.6°F-4.1°C 18.5°F-7.5°C 77% 0.9 mph SSW1.4 kmh SSW 2.0 mph3.2 kmh 29.63 in1003.4 mb 0.00 in0.0 mm 0.00 in0.0 mm 0.00 in0.0 mm
03:16 AM 24.4°F-4.2°C 18.5°F-7.5°C 78% Calm Calm 2.0 mph3.2 kmh 29.63 in1003.4 mb 0.00 in0.0 mm 0.00 in0.0 mm 0.00 in0.0 mm
03:21 AM 24.4°F-4.2°C 18.9°F-7.3°C 79% Calm Calm 2.0 mph3.2 kmh 29.63 in1003.4 mb 0.00 in0.0 mm 0.00 in0.0 mm 0.00 in0.0 mm
03:27 AM 24.3°F-4.3°C 19.0°F-7.2°C 80% 0.9 mph SW1.4 kmh SW 2.0 mph3.2 kmh 29.63 in1003.4 mb 0.00 in0.0 mm 0.00 in0.0 mm 0.00 in0.0 mm
03:32 AM 24.3°F-4.3°C 19.2°F-7.1°C 81% 0.9 mph SSW1.4 kmh SSW 0.9 mph1.4 kmh 29.63 in1003.4 mb 0.00 in0.0 mm 0.00 in0.0 mm 0.00 in0.0 mm
03:37 AM 24.1°F-4.4°C 19.4°F-7.0°C 82% Calm Calm 3.0 mph4.8 kmh 29.63 in1003.4 mb 0.00 in0.0 mm 0.00 in0.0 mm 0.00 in0.0 mm
03:42 AM 23.9°F-4.5°C 19.6°F-6.9°C 83% Calm Calm 2.0 mph3.2 kmh 29.63 in1003.4 mb 0.00 in0.0 mm 0.00 in0.0 mm 0.00 in0.0 mm
03:47 AM 23.7°F-4.6°C 19.6°F-6.9°C 84% 0.9 mph S1.4 kmh S 4.0 mph6.4 kmh 29.63 in1003.4 mb 0.00 in0.0 mm 0.00 in0.0 mm 0.00 in0.0 mm
03:52 AM 23.7°F-4.6°C 19.6°F-6.9°C 84% 0.9 mph SSW1.4 kmh SSW 2.9 mph4.7 kmh 29.63 in1003.4 mb 0.00 in0.0 mm 0.00 in0.0 mm 0.00 in0.0 mm
03:57 AM 23.7°F-4.6°C 19.9°F-6.7°C 85% Calm Calm 2.0 mph3.2 kmh 29.63 in1003.4 mb 0.00 in0.0 mm 0.00 in0.0 mm 0.00 in0.0 mm
04:02 AM 23.7°F-4.6°C 19.9°F-6.7°C 85% Calm Calm 0.9 mph1.4 kmh 29.63 in1003.4 mb 0.00 in0.0 mm 0.00 in0.0 mm 0.00 in0.0 mm
04:07 AM 23.9°F-4.5°C 20.3°F-6.5°C 86% Calm Calm 3.0 mph4.8 kmh 29.63 in1003.4 mb 0.00 in0.0 mm 0.00 in0.0 mm 0.00 in0.0 mm
04:12 AM 23.9°F-4.5°C 20.3°F-6.5°C 86% Calm Calm 2.0 mph3.2 kmh 29.62 in1003.0 mb 0.00 in0.0 mm 0.00 in0.0 mm 0.00 in0.0 mm
04:17 AM 23.9°F-4.5°C 20.3°F-6.5°C 86% Calm Calm 2.0 mph3.2 kmh 29.63 in1003.4 mb 0.00 in0.0 mm 0.00 in0.0 mm 0.00 in0.0 mm
04:22 AM 23.9°F-4.5°C 20.7°F-6.3°C 87% Calm Calm 3.0 mph4.8 kmh 29.62 in1003.0 mb 0.00 in0.0 mm 0.00 in0.0 mm 0.00 in0.0 mm
04:27 AM 24.1°F-4.4°C 20.8°F-6.2°C 87% Calm Calm 4.0 mph6.4 kmh 29.62 in1003.0 mb 0.00 in0.0 mm 0.00 in0.0 mm 0.00 in0.0 mm
04:32 AM 24.1°F-4.4°C 20.8°F-6.2°C 87% Calm Calm 4.0 mph6.4 kmh 29.62 in1003.0 mb 0.00 in0.0 mm 0.00 in0.0 mm 0.00 in0.0 mm
04:37 AM 24.1°F-4.4°C 20.8°F-6.2°C 87% 0.9 mph SSE1.4 kmh SSE 2.9 mph4.7 kmh 29.62 in1003.0 mb 0.00 in0.0 mm 0.00 in0.0 mm 0.00 in0.0 mm
04:42 AM 24.3°F-4.3°C 21.0°F-6.1°C 87% Calm Calm 4.0 mph6.4 kmh 29.62 in1003.0 mb 0.00 in0.0 mm 0.00 in0.0 mm 0.00 in0.0 mm
04:47 AM 24.3°F-4.3°C 21.0°F-6.1°C 87% Calm Calm 2.0 mph3.2 kmh 29.62 in1003.0 mb 0.00 in0.0 mm 0.00 in0.0 mm 0.00 in0.0 mm
04:52 AM 24.3°F-4.3°C 21.0°F-6.1°C 87% Calm Calm 2.0 mph3.2 kmh 29.62 in1003.0 mb 0.00 in0.0 mm 0.00 in0.0 mm 0.00 in0.0 mm
04:57 AM 24.4°F-4.2°C 21.2°F-6.0°C 87% Calm Calm 2.0 mph3.2 kmh 29.62 in1003.0 mb 0.00 in0.0 mm 0.00 in0.0 mm 0.00 in0.0 mm
05:02 AM 24.6°F-4.1°C 21.4°F-5.9°C 87% 0.9 mph SSE1.4 kmh SSE 2.9 mph4.7 kmh 29.62 in1003.0 mb 0.00 in0.0 mm 0.00 in0.0 mm 0.00 in0.0 mm
05:07 AM 24.6°F-4.1°C 21.4°F-5.9°C 87% 0.9 mph SSE1.4 kmh SSE 2.0 mph3.2 kmh 29.62 in1003.0 mb 0.00 in0.0 mm 0.00 in0.0 mm 0.00 in0.0 mm
05:12 AM 24.6°F-4.1°C 21.4°F-5.9°C 87% Calm Calm 3.0 mph4.8 kmh 29.62 in1003.0 mb 0.00 in0.0 mm 0.00 in0.0 mm 0.00 in0.0 mm
05:17 AM 24.8°F-4.0°C 21.6°F-5.8°C 87% 0.9 mph S1.4 kmh S 2.9 mph4.7 kmh 29.62 in1003.0 mb 0.00 in0.0 mm 0.00 in0.0 mm 0.00 in0.0 mm
05:22 AM 24.6°F-4.1°C 21.4°F-5.9°C 87% 0.9 mph SSW1.4 kmh SSW 2.0 mph3.2 kmh 29.62 in1003.0 mb 0.00 in0.0 mm 0.00 in0.0 mm 0.00 in0.0 mm
05:27 AM 24.8°F-4.0°C 21.6°F-5.8°C 87% 0.9 mph SSE1.4 kmh SSE 5.0 mph8.0 kmh 29.62 in1003.0 mb 0.00 in0.0 mm 0.00 in0.0 mm 0.00 in0.0 mm
05:32 AM 24.8°F-4.0°C 21.6°F-5.8°C 87% 0.9 mph SE1.4 kmh SE 2.0 mph3.2 kmh 29.62 in1003.0 mb 0.00 in0.0 mm 0.00 in0.0 mm 0.00 in0.0 mm
05:37 AM 24.8°F-4.0°C 21.6°F-5.8°C 87% Calm Calm 2.0 mph3.2 kmh 29.62 in1003.0 mb 0.00 in0.0 mm 0.00 in0.0 mm 0.00 in0.0 mm
05:42 AM 24.8°F-4.0°C 21.6°F-5.8°C 87% 0.9 mph S1.4 kmh S 2.9 mph4.7 kmh 29.62 in1003.0 mb 0.00 in0.0 mm 0.00 in0.0 mm 0.00 in0.0 mm
05:47 AM 24.8°F-4.0°C 21.6°F-5.8°C 87% 0.9 mph S1.4 kmh S 2.0 mph3.2 kmh 29.63 in1003.4 mb 0.00 in0.0 mm 0.00 in0.0 mm 0.00 in0.0 mm
05:52 AM 24.8°F-4.0°C 21.7°F-5.7°C 88% Calm Calm 2.0 mph3.2 kmh 29.63 in1003.4 mb 0.00 in0.0 mm 0.00 in0.0 mm 0.00 in0.0 mm
05:57 AM 24.8°F-4.0°C 21.7°F-5.7°C 88% Calm Calm 2.0 mph3.2 kmh 29.63 in1003.4 mb 0.00 in0.0 mm 0.00 in0.0 mm 0.00 in0.0 mm
06:02 AM 24.8°F-4.0°C 21.7°F-5.7°C 88% Calm Calm 0.9 mph1.4 kmh 29.63 in1003.4 mb 0.00 in0.0 mm 0.00 in0.0 mm 0.00 in0.0 mm
06:07 AM 24.8°F-4.0°C 22.1°F-5.5°C 89% Calm Calm 3.0 mph4.8 kmh 29.63 in1003.4 mb 0.00 in0.0 mm 0.00 in0.0 mm 0.00 in0.0 mm
06:12 AM 24.6°F-4.1°C 21.9°F-5.6°C 89% Calm Calm 0.9 mph1.4 kmh 29.63 in1003.4 mb 0.00 in0.0 mm 0.00 in0.0 mm 0.00 in0.0 mm
06:17 AM 24.6°F-4.1°C 21.9°F-5.6°C 89% Calm Calm 0.9 mph1.4 kmh 29.63 in1003.4 mb 0.00 in0.0 mm 0.00 in0.0 mm 0.00 in0.0 mm
06:22 AM 24.6°F-4.1°C 22.1°F-5.5°C 90% Calm Calm 0.9 mph1.4 kmh 29.63 in1003.4 mb 0.00 in0.0 mm 0.00 in0.0 mm 0.00 in0.0 mm
06:27 AM 24.6°F-4.1°C 22.1°F-5.5°C 90% Calm Calm 2.9 mph4.7 kmh 29.63 in1003.4 mb 0.00 in0.0 mm 0.00 in0.0 mm 0.00 in0.0 mm
06:32 AM 24.6°F-4.1°C 22.1°F-5.5°C 90% Calm Calm 2.0 mph3.2 kmh 29.63 in1003.4 mb 0.00 in0.0 mm 0.00 in0.0 mm 0.00 in0.0 mm
06:37 AM 24.4°F-4.2°C 21.9°F-5.6°C 90% Calm Calm 0.9 mph1.4 kmh 29.63 in1003.4 mb 0.00 in0.0 mm 0.00 in0.0 mm 0.00 in0.0 mm
06:42 AM 24.4°F-4.2°C 22.3°F-5.4°C 91% Calm Calm 0.9 mph1.4 kmh 29.63 in1003.4 mb 0.00 in0.0 mm 0.00 in0.0 mm 0.00 in0.0 mm
06:47 AM 24.4°F-4.2°C 22.3°F-5.4°C 91% Calm Calm 2.0 mph3.2 kmh 29.64 in1003.7 mb 0.00 in0.0 mm 0.00 in0.0 mm 0.00 in0.0 mm
06:52 AM 24.4°F-4.2°C 22.3°F-5.4°C 91% 0.9 mph SSW1.4 kmh SSW 4.0 mph6.4 kmh 29.64 in1003.7 mb 0.00 in0.0 mm 0.00 in0.0 mm 0.00 in0.0 mm
06:57 AM 24.4°F-4.2°C 22.3°F-5.4°C 91% 0.9 mph SSW1.4 kmh SSW 2.0 mph3.2 kmh 29.64 in1003.7 mb 0.00 in0.0 mm 0.00 in0.0 mm 0.00 in0.0 mm
07:02 AM 24.4°F-4.2°C 22.3°F-5.4°C 91% Calm Calm 2.9 mph4.7 kmh 29.64 in1003.7 mb 0.00 in0.0 mm 0.00 in0.0 mm 0.00 in0.0 mm
07:07 AM 24.4°F-4.2°C 22.3°F-5.4°C 91% 0.9 mph SSE1.4 kmh SSE 4.0 mph6.4 kmh 29.64 in1003.7 mb 0.00 in0.0 mm 0.00 in0.0 mm 0.00 in0.0 mm
07:12 AM 24.4°F-4.2°C 22.3°F-5.4°C 91% 0.9 mph SSE1.4 kmh SSE 2.9 mph4.7 kmh 29.65 in1004.1 mb 0.00 in0.0 mm 0.00 in0.0 mm 0.00 in0.0 mm
07:17 AM 24.4°F-4.2°C 22.3°F-5.4°C 91% Calm Calm 0.9 mph1.4 kmh 29.65 in1004.1 mb 0.00 in0.0 mm 0.00 in0.0 mm 0.00 in0.0 mm
07:22 AM 24.4°F-4.2°C 22.5°F-5.3°C 92% Calm Calm 0.9 mph1.4 kmh 29.65 in1004.1 mb 0.00 in0.0 mm 0.00 in0.0 mm 0.00 in0.0 mm
07:27 AM 24.4°F-4.2°C 22.5°F-5.3°C 92% Calm Calm 0.9 mph1.4 kmh 29.65 in1004.1 mb 0.00 in0.0 mm 0.00 in0.0 mm 0.00 in0.0 mm
07:32 AM 24.4°F-4.2°C 22.5°F-5.3°C 92% Calm Calm -- 29.65 in1004.1 mb 0.00 in0.0 mm 0.00 in0.0 mm 0.00 in0.0 mm
07:37 AM 24.6°F-4.1°C 22.6°F-5.2°C 92% Calm Calm 0.9 mph1.4 kmh 29.65 in1004.1 mb 0.00 in0.0 mm 0.00 in0.0 mm 0.00 in0.0 mm
07:42 AM 24.6°F-4.1°C 22.6°F-5.2°C 92% Calm Calm 0.9 mph1.4 kmh 29.65 in1004.1 mb 0.00 in0.0 mm 0.00 in0.0 mm 0.00 in0.0 mm
07:47 AM 24.6°F-4.1°C 22.6°F-5.2°C 92% Calm Calm 2.0 mph3.2 kmh 29.66 in1004.4 mb 0.00 in0.0 mm 0.00 in0.0 mm 0.00 in0.0 mm
07:52 AM 24.6°F-4.1°C 22.6°F-5.2°C 92% Calm Calm 0.9 mph1.4 kmh 29.66 in1004.4 mb 0.00 in0.0 mm 0.00 in0.0 mm 0.00 in0.0 mm
07:57 AM 24.6°F-4.1°C 22.6°F-5.2°C 92% Calm Calm 0.9 mph1.4 kmh 29.66 in1004.4 mb 0.00 in0.0 mm 0.00 in0.0 mm 0.00 in0.0 mm
08:02 AM 24.8°F-4.0°C 22.8°F-5.1°C 92% Calm Calm 2.0 mph3.2 kmh 29.66 in1004.4 mb 0.00 in0.0 mm 0.00 in0.0 mm 0.00 in0.0 mm
08:07 AM 24.8°F-4.0°C 22.8°F-5.1°C 92% Calm Calm 0.9 mph1.4 kmh 29.66 in1004.4 mb 0.00 in0.0 mm 0.00 in0.0 mm 0.00 in0.0 mm
08:12 AM 25.0°F-3.9°C 23.0°F-5.0°C 92% Calm Calm 0.9 mph1.4 kmh 29.66 in1004.4 mb 0.00 in0.0 mm 0.00 in0.0 mm 0.00 in0.0 mm
08:17 AM 25.0°F-3.9°C 23.0°F-5.0°C 92% Calm Calm 2.0 mph3.2 kmh 29.67 in1004.7 mb 0.00 in0.0 mm 0.00 in0.0 mm 0.00 in0.0 mm
08:22 AM 25.2°F-3.8°C 22.8°F-5.1°C 91% Calm Calm 0.9 mph1.4 kmh 29.67 in1004.7 mb 0.00 in0.0 mm 0.00 in0.0 mm 0.00 in0.0 mm
08:28 AM 25.2°F-3.8°C 22.8°F-5.1°C 91% Calm Calm -- 29.67 in1004.7 mb 0.00 in0.0 mm 0.00 in0.0 mm 0.00 in0.0 mm
08:33 AM 25.3°F-3.7°C 23.0°F-5.0°C 91% Calm Calm -- 29.67 in1004.7 mb 0.00 in0.0 mm 0.00 in0.0 mm 0.00 in0.0 mm
08:38 AM 25.5°F-3.6°C 23.2°F-4.9°C 91% Calm Calm -- 29.67 in1004.7 mb 0.00 in0.0 mm 0.00 in0.0 mm 0.00 in0.0 mm
08:43 AM 25.5°F-3.6°C 23.2°F-4.9°C 91% Calm Calm 2.0 mph3.2 kmh 29.67 in1004.7 mb 0.00 in0.0 mm 0.00 in0.0 mm 0.00 in0.0 mm
08:48 AM 25.7°F-3.5°C 23.4°F-4.8°C 91% Calm Calm 0.9 mph1.4 kmh 29.67 in1004.7 mb 0.00 in0.0 mm 0.00 in0.0 mm 0.00 in0.0 mm
08:53 AM 25.7°F-3.5°C 23.4°F-4.8°C 91% Calm Calm -- 29.68 in1005.1 mb 0.00 in0.0 mm 0.00 in0.0 mm 0.00 in0.0 mm
08:58 AM 25.9°F-3.4°C 23.4°F-4.8°C 90% Calm Calm 0.9 mph1.4 kmh 29.68 in1005.1 mb 0.00 in0.0 mm 0.00 in0.0 mm 0.00 in0.0 mm
09:03 AM 25.9°F-3.4°C 23.4°F-4.8°C 90% Calm Calm 0.9 mph1.4 kmh 29.68 in1005.1 mb 0.00 in0.0 mm 0.00 in0.0 mm 0.00 in0.0 mm
09:08 AM 25.9°F-3.4°C 23.4°F-4.8°C 90% Calm Calm 0.9 mph1.4 kmh 29.68 in1005.1 mb 0.00 in0.0 mm 0.00 in0.0 mm 0.00 in0.0 mm
09:13 AM 26.1°F-3.3°C 23.7°F-4.6°C 91% Calm Calm 0.9 mph1.4 kmh 29.68 in1005.1 mb 0.00 in0.0 mm 0.00 in0.0 mm 0.00 in0.0 mm
09:18 AM 26.2°F-3.2°C 23.7°F-4.6°C 90% Calm Calm 0.9 mph1.4 kmh 29.68 in1005.1 mb 0.00 in0.0 mm 0.00 in0.0 mm 0.00 in0.0 mm
09:23 AM 26.2°F-3.2°C 23.7°F-4.6°C 90% Calm Calm -- 29.68 in1005.1 mb 0.00 in0.0 mm 0.00 in0.0 mm 0.00 in0.0 mm
09:28 AM 26.4°F-3.1°C 23.9°F-4.5°C 90% Calm Calm -- 29.69 in1005.4 mb 0.00 in0.0 mm 0.00 in0.0 mm 0.00 in0.0 mm
09:33 AM 26.6°F-3.0°C 24.1°F-4.4°C 90% Calm Calm -- 29.68 in1005.1 mb 0.00 in0.0 mm 0.00 in0.0 mm 0.00 in0.0 mm
09:38 AM 26.8°F-2.9°C 24.3°F-4.3°C 90% Calm Calm 0.9 mph1.4 kmh 29.69 in1005.4 mb 0.00 in0.0 mm 0.00 in0.0 mm 0.00 in0.0 mm
09:43 AM 26.4°F-3.1°C 23.5°F-4.7°C 89% Calm Calm 4.9 mph7.9 kmh 29.70 in1005.8 mb 0.00 in0.0 mm 0.00 in0.0 mm 0.00 in0.0 mm
09:48 AM 25.7°F-3.5°C 22.6°F-5.2°C 88% 0.9 mph WNW1.4 kmh WNW 2.9 mph4.7 kmh 29.70 in1005.8 mb 0.00 in0.0 mm 0.00 in0.0 mm 0.00 in0.0 mm
09:53 AM 25.3°F-3.7°C 22.6°F-5.2°C 89% 0.9 mph WSW1.4 kmh WSW 4.0 mph6.4 kmh 29.70 in1005.8 mb 0.00 in0.0 mm 0.00 in0.0 mm 0.00 in0.0 mm
09:58 AM 25.2°F-3.8°C 22.5°F-5.3°C 89% Calm Calm 2.0 mph3.2 kmh 29.71 in1006.1 mb 0.00 in0.0 mm 0.00 in0.0 mm 0.00 in0.0 mm
10:03 AM 25.2°F-3.8°C 22.5°F-5.3°C 89% Calm Calm 2.0 mph3.2 kmh 29.71 in1006.1 mb 0.00 in0.0 mm 0.00 in0.0 mm 0.00 in0.0 mm
10:08 AM 25.0°F-3.9°C 21.9°F-5.6°C 88% Calm Calm 6.0 mph9.7 kmh 29.71 in1006.1 mb 0.00 in0.0 mm 0.00 in0.0 mm 0.00 in0.0 mm
10:13 AM 24.6°F-4.1°C 21.6°F-5.8°C 88% 0.9 mph NW1.4 kmh NW 6.9 mph11.1 kmh 29.71 in1006.1 mb 0.00 in0.0 mm 0.00 in0.0 mm 0.00 in0.0 mm
10:18 AM 24.4°F-4.2°C 21.4°F-5.9°C 88% 0.9 mph NNW1.4 kmh NNW 6.0 mph9.7 kmh 29.71 in1006.1 mb 0.00 in0.0 mm 0.00 in0.0 mm 0.00 in0.0 mm
10:23 AM 24.3°F-4.3°C 21.2°F-6.0°C 88% 0.9 mph W1.4 kmh W 6.0 mph9.7 kmh 29.72 in1006.4 mb 0.00 in0.0 mm 0.00 in0.0 mm 0.00 in0.0 mm
10:28 AM 24.3°F-4.3°C 21.2°F-6.0°C 88% 0.9 mph WNW1.4 kmh WNW 6.0 mph9.7 kmh 29.72 in1006.4 mb 0.00 in0.0 mm 0.00 in0.0 mm 0.00 in0.0 mm
10:33 AM 24.1°F-4.4°C 21.0°F-6.1°C 88% 2.0 mph W3.2 kmh W 6.0 mph9.7 kmh 29.72 in1006.4 mb 0.00 in0.0 mm 0.00 in0.0 mm 0.00 in0.0 mm
10:38 AM 24.1°F-4.4°C 21.0°F-6.1°C 88% 2.0 mph WNW3.2 kmh WNW 6.9 mph11.1 kmh 29.73 in1006.8 mb 0.00 in0.0 mm 0.00 in0.0 mm 0.00 in0.0 mm
10:43 AM 24.1°F-4.4°C 21.0°F-6.1°C 88% 0.9 mph WNW1.4 kmh WNW 4.9 mph7.9 kmh 29.73 in1006.8 mb 0.00 in0.0 mm 0.00 in0.0 mm 0.00 in0.0 mm
10:48 AM 24.1°F-4.4°C 21.0°F-6.1°C 88% 0.9 mph WNW1.4 kmh WNW 4.0 mph6.4 kmh 29.73 in1006.8 mb 0.00 in0.0 mm 0.00 in0.0 mm 0.00 in0.0 mm
10:53 AM 23.7°F-4.6°C 20.5°F-6.4°C 87% 0.9 mph NNW1.4 kmh NNW 6.0 mph9.7 kmh 29.74 in1007.1 mb 0.00 in0.0 mm 0.00 in0.0 mm 0.00 in0.0 mm
10:58 AM 23.5°F-4.7°C 20.3°F-6.5°C 87% 0.9 mph WSW1.4 kmh WSW 8.0 mph12.9 kmh 29.74 in1007.1 mb 0.00 in0.0 mm 0.00 in0.0 mm 0.00 in0.0 mm
11:03 AM 23.5°F-4.7°C 20.3°F-6.5°C 87% 0.9 mph WNW1.4 kmh WNW 6.0 mph9.7 kmh 29.74 in1007.1 mb 0.00 in0.0 mm 0.00 in0.0 mm 0.00 in0.0 mm
11:08 AM 23.5°F-4.7°C 19.9°F-6.7°C 86% 0.9 mph W1.4 kmh W 4.0 mph6.4 kmh 29.74 in1007.1 mb 0.00 in0.0 mm 0.00 in0.0 mm 0.00 in0.0 mm
11:13 AM 23.5°F-4.7°C 19.9°F-6.7°C 86% 0.9 mph W1.4 kmh W 9.0 mph14.5 kmh 29.74 in1007.1 mb 0.00 in0.0 mm 0.00 in0.0 mm 0.00 in0.0 mm
11:18 AM 23.5°F-4.7°C 19.9°F-6.7°C 86% 2.0 mph NW3.2 kmh NW 6.9 mph11.1 kmh 29.74 in1007.1 mb 0.00 in0.0 mm 0.00 in0.0 mm 0.00 in0.0 mm
11:23 AM 23.4°F-4.8°C 19.8°F-6.8°C 86% 2.0 mph NNW3.2 kmh NNW 8.1 mph13.0 kmh 29.74 in1007.1 mb 0.00 in0.0 mm 0.00 in0.0 mm 0.00 in0.0 mm
11:28 AM 23.4°F-4.8°C 19.8°F-6.8°C 86% 2.0 mph W3.2 kmh W 4.9 mph7.9 kmh 29.74 in1007.1 mb 0.00 in0.0 mm 0.00 in0.0 mm 0.00 in0.0 mm
11:33 AM 23.5°F-4.7°C 19.9°F-6.7°C 86% 0.9 mph NNW1.4 kmh NNW 4.9 mph7.9 kmh 29.75 in1007.5 mb 0.00 in0.0 mm 0.00 in0.0 mm 0.00 in0.0 mm
11:38 AM 23.7°F-4.6°C 20.1°F-6.6°C 86% 0.9 mph WSW1.4 kmh WSW 2.9 mph4.7 kmh 29.75 in1007.5 mb 0.00 in0.0 mm 0.00 in0.0 mm 0.00 in0.0 mm
11:43 AM 23.7°F-4.6°C 20.1°F-6.6°C 86% 0.9 mph NW1.4 kmh NW 4.0 mph6.4 kmh 29.75 in1007.5 mb 0.00 in0.0 mm 0.00 in0.0 mm 0.00 in0.0 mm
11:48 AM 23.4°F-4.8°C 19.6°F-6.9°C 85% 0.9 mph N1.4 kmh N 6.0 mph9.7 kmh 29.75 in1007.5 mb 0.00 in0.0 mm 0.00 in0.0 mm 0.00 in0.0 mm
11:53 AM 23.4°F-4.8°C 19.8°F-6.8°C 86% 0.9 mph WNW1.4 kmh WNW 4.9 mph7.9 kmh 29.75 in1007.5 mb 0.00 in0.0 mm 0.00 in0.0 mm 0.00 in0.0 mm
11:58 AM 23.4°F-4.8°C 19.8°F-6.8°C 86% 0.9 mph NNW1.4 kmh NNW 6.0 mph9.7 kmh 29.75 in1007.5 mb 0.00 in0.0 mm 0.00 in0.0 mm 0.00 in0.0 mm
12:03 PM 23.4°F-4.8°C 19.8°F-6.8°C 86% 2.0 mph NW3.2 kmh NW 6.0 mph9.7 kmh 29.75 in1007.5 mb 0.00 in0.0 mm 0.00 in0.0 mm 0.00 in0.0 mm
12:08 PM 23.4°F-4.8°C 19.8°F-6.8°C 86% 2.0 mph NNW3.2 kmh NNW 4.0 mph6.4 kmh 29.75 in1007.5 mb 0.00 in0.0 mm 0.00 in0.0 mm 0.00 in0.0 mm
12:13 PM 23.4°F-4.8°C 19.6°F-6.9°C 85% 2.0 mph NW3.2 kmh NW 6.9 mph11.1 kmh 29.75 in1007.5 mb 0.00 in0.0 mm 0.00 in0.0 mm 0.00 in0.0 mm
12:18 PM 23.4°F-4.8°C 19.6°F-6.9°C 85% 2.0 mph NW3.2 kmh NW 8.1 mph13.0 kmh 29.75 in1007.5 mb 0.00 in0.0 mm 0.00 in0.0 mm 0.00 in0.0 mm
12:23 PM 23.4°F-4.8°C 19.6°F-6.9°C 85% 2.0 mph W3.2 kmh W 6.9 mph11.1 kmh 29.75 in1007.5 mb 0.00 in0.0 mm 0.00 in0.0 mm 0.00 in0.0 mm
12:28 PM 23.4°F-4.8°C 19.6°F-6.9°C 85% 2.0 mph W3.2 kmh W 6.0 mph9.7 kmh 29.75 in1007.5 mb 0.00 in0.0 mm 0.00 in0.0 mm 0.00 in0.0 mm
12:33 PM 23.4°F-4.8°C 19.6°F-6.9°C 85% 2.0 mph NW3.2 kmh NW 4.9 mph7.9 kmh 29.75 in1007.5 mb 0.00 in0.0 mm 0.00 in0.0 mm 0.00 in0.0 mm
12:38 PM 23.4°F-4.8°C 19.6°F-6.9°C 85% 0.9 mph N1.4 kmh N 8.1 mph13.0 kmh 29.76 in1007.8 mb 0.00 in0.0 mm 0.00 in0.0 mm 0.00 in0.0 mm
12:43 PM 23.4°F-4.8°C 19.6°F-6.9°C 85% 0.9 mph NW1.4 kmh NW 6.0 mph9.7 kmh 29.75 in1007.5 mb 0.00 in0.0 mm 0.00 in0.0 mm 0.00 in0.0 mm
12:48 PM 23.4°F-4.8°C 19.6°F-6.9°C 85% 0.9 mph N1.4 kmh N 6.0 mph9.7 kmh 29.76 in1007.8 mb 0.00 in0.0 mm 0.00 in0.0 mm 0.00 in0.0 mm
12:53 PM 23.4°F-4.8°C 19.6°F-6.9°C 85% 0.9 mph NW1.4 kmh NW 6.9 mph11.1 kmh 29.76 in1007.8 mb 0.00 in0.0 mm 0.00 in0.0 mm 0.00 in0.0 mm
12:58 PM 23.4°F-4.8°C 19.8°F-6.8°C 86% 0.9 mph N1.4 kmh N 6.0 mph9.7 kmh 29.76 in1007.8 mb 0.00 in0.0 mm 0.00 in0.0 mm 0.00 in0.0 mm
01:03 PM 23.2°F-4.9°C 19.4°F-7.0°C 85% 2.0 mph WNW3.2 kmh WNW 9.0 mph14.5 kmh 29.76 in1007.8 mb 0.00 in0.0 mm 0.00 in0.0 mm 0.00 in0.0 mm
01:08 PM 23.2°F-4.9°C 19.4°F-7.0°C 85% 2.9 mph WNW4.7 kmh WNW 6.9 mph11.1 kmh 29.76 in1007.8 mb 0.00 in0.0 mm 0.00 in0.0 mm 0.00 in0.0 mm
01:13 PM 23.4°F-4.8°C 19.8°F-6.8°C 86% 2.0 mph NNW3.2 kmh NNW 6.0 mph9.7 kmh 29.76 in1007.8 mb 0.00 in0.0 mm 0.00 in0.0 mm 0.00 in0.0 mm
01:18 PM 23.5°F-4.7°C 19.8°F-6.8°C 85% 2.0 mph NW3.2 kmh NW 7.0 mph11.3 kmh 29.76 in1007.8 mb 0.00 in0.0 mm 0.00 in0.0 mm 0.00 in0.0 mm
01:23 PM 23.7°F-4.6°C 20.1°F-6.6°C 86% 2.0 mph NE3.2 kmh NE 4.9 mph7.9 kmh 29.76 in1007.8 mb 0.00 in0.0 mm 0.00 in0.0 mm 0.00 in0.0 mm
01:29 PM 24.1°F-4.4°C 20.3°F-6.5°C 85% 2.0 mph W3.2 kmh W 6.9 mph11.1 kmh 29.77 in1008.1 mb 0.00 in0.0 mm 0.00 in0.0 mm 0.00 in0.0 mm
01:34 PM 24.1°F-4.4°C 20.3°F-6.5°C 85% 2.0 mph W3.2 kmh W 6.9 mph11.1 kmh 29.77 in1008.1 mb 0.00 in0.0 mm 0.00 in0.0 mm 0.00 in0.0 mm
01:39 PM 24.1°F-4.4°C 20.3°F-6.5°C 85% 2.0 mph NW3.2 kmh NW 4.0 mph6.4 kmh 29.77 in1008.1 mb 0.00 in0.0 mm 0.00 in0.0 mm 0.00 in0.0 mm
01:44 PM 24.1°F-4.4°C 20.3°F-6.5°C 85% 2.0 mph NW3.2 kmh NW 6.0 mph9.7 kmh 29.77 in1008.1 mb 0.00 in0.0 mm 0.00 in0.0 mm 0.00 in0.0 mm
01:49 PM 24.3°F-4.3°C 20.1°F-6.6°C 84% 2.0 mph WNW3.2 kmh WNW 8.1 mph13.0 kmh 29.77 in1008.1 mb 0.00 in0.0 mm 0.00 in0.0 mm 0.00 in0.0 mm
01:54 PM 24.1°F-4.4°C 19.9°F-6.7°C 84% 2.0 mph NNW3.2 kmh NNW 6.9 mph11.1 kmh 29.77 in1008.1 mb 0.00 in0.0 mm 0.00 in0.0 mm 0.00 in0.0 mm
01:59 PM 23.7°F-4.6°C 19.4°F-7.0°C 83% 2.9 mph NW4.7 kmh NW 10.1 mph16.3 kmh 29.78 in1008.5 mb 0.00 in0.0 mm 0.00 in0.0 mm 0.00 in0.0 mm
02:04 PM 23.7°F-4.6°C 19.6°F-6.9°C 84% 2.9 mph NNW4.7 kmh NNW 6.9 mph11.1 kmh 29.78 in1008.5 mb 0.00 in0.0 mm 0.00 in0.0 mm 0.00 in0.0 mm
02:09 PM 23.5°F-4.7°C 19.4°F-7.0°C 84% 2.0 mph NW3.2 kmh NW 6.9 mph11.1 kmh 29.78 in1008.5 mb 0.00 in0.0 mm 0.00 in0.0 mm 0.00 in0.0 mm
02:14 PM 23.7°F-4.6°C 19.6°F-6.9°C 84% 0.9 mph N1.4 kmh N 6.9 mph11.1 kmh 29.79 in1008.8 mb 0.00 in0.0 mm 0.00 in0.0 mm 0.00 in0.0 mm
02:19 PM 23.5°F-4.7°C 19.2°F-7.1°C 83% 0.9 mph NW1.4 kmh NW 6.9 mph11.1 kmh 29.79 in1008.8 mb 0.00 in0.0 mm 0.00 in0.0 mm 0.00 in0.0 mm
02:24 PM 23.4°F-4.8°C 19.0°F-7.2°C 83% 2.9 mph NW4.7 kmh NW 8.1 mph13.0 kmh 29.79 in1008.8 mb 0.00 in0.0 mm 0.00 in0.0 mm 0.00 in0.0 mm
02:29 PM 23.2°F-4.9°C 19.0°F-7.2°C 84% 2.9 mph WNW4.7 kmh WNW 9.0 mph14.5 kmh 29.79 in1008.8 mb 0.00 in0.0 mm 0.00 in0.0 mm 0.00 in0.0 mm
02:34 PM 23.4°F-4.8°C 19.2°F-7.1°C 84% 2.9 mph NW4.7 kmh NW 8.1 mph13.0 kmh 29.79 in1008.8 mb 0.00 in0.0 mm 0.00 in0.0 mm 0.00 in0.0 mm
02:39 PM 23.4°F-4.8°C 19.2°F-7.1°C 84% 2.0 mph W3.2 kmh W 9.0 mph14.5 kmh 29.79 in1008.8 mb 0.00 in0.0 mm 0.00 in0.0 mm 0.00 in0.0 mm
02:44 PM 23.5°F-4.7°C 19.4°F-7.0°C 84% 2.0 mph NNW3.2 kmh NNW 10.1 mph16.3 kmh 29.79 in1008.8 mb 0.00 in0.0 mm 0.00 in0.0 mm 0.00 in0.0 mm
02:49 PM 23.9°F-4.5°C 19.8°F-6.8°C 84% 0.9 mph NW1.4 kmh NW 4.0 mph6.4 kmh 29.80 in1009.1 mb 0.00 in0.0 mm 0.00 in0.0 mm 0.00 in0.0 mm
02:54 PM 23.9°F-4.5°C 19.6°F-6.9°C 83% 2.0 mph W3.2 kmh W 8.1 mph13.0 kmh 29.80 in1009.1 mb 0.00 in0.0 mm 0.00 in0.0 mm 0.00 in0.0 mm
02:59 PM 23.7°F-4.6°C 19.6°F-6.9°C 84% 2.0 mph WSW3.2 kmh WSW 8.1 mph13.0 kmh 29.80 in1009.1 mb 0.00 in0.0 mm 0.00 in0.0 mm 0.00 in0.0 mm
03:04 PM 23.9°F-4.5°C 19.8°F-6.8°C 84% 2.0 mph NW3.2 kmh NW 4.9 mph7.9 kmh 29.81 in1009.5 mb 0.00 in0.0 mm 0.00 in0.0 mm 0.00 in0.0 mm
03:09 PM 23.9°F-4.5°C 19.8°F-6.8°C 84% 0.9 mph NNW1.4 kmh NNW 4.9 mph7.9 kmh 29.81 in1009.5 mb 0.00 in0.0 mm 0.00 in0.0 mm 0.00 in0.0 mm
03:14 PM 23.7°F-4.6°C 19.4°F-7.0°C 83% 0.9 mph NNW1.4 kmh NNW 6.0 mph9.7 kmh 29.81 in1009.5 mb 0.00 in0.0 mm 0.00 in0.0 mm 0.00 in0.0 mm
03:19 PM 23.5°F-4.7°C 19.4°F-7.0°C 84% 2.0 mph NNW3.2 kmh NNW 8.1 mph13.0 kmh 29.81 in1009.5 mb 0.00 in0.0 mm 0.00 in0.0 mm 0.00 in0.0 mm
03:24 PM 23.5°F-4.7°C 19.4°F-7.0°C 84% 2.0 mph WNW3.2 kmh WNW 6.0 mph9.7 kmh 29.82 in1009.8 mb 0.00 in0.0 mm 0.00 in0.0 mm 0.00 in0.0 mm
03:29 PM 23.4°F-4.8°C 19.2°F-7.1°C 84% 2.0 mph NW3.2 kmh NW 4.9 mph7.9 kmh 29.82 in1009.8 mb 0.00 in0.0 mm 0.00 in0.0 mm 0.00 in0.0 mm
03:34 PM 23.4°F-4.8°C 19.2°F-7.1°C 84% 2.0 mph W3.2 kmh W 6.0 mph9.7 kmh 29.82 in1009.8 mb 0.00 in0.0 mm 0.00 in0.0 mm 0.00 in0.0 mm
03:39 PM 23.4°F-4.8°C 19.2°F-7.1°C 84% 0.9 mph W1.4 kmh W 4.9 mph7.9 kmh 29.83 in1010.2 mb 0.00 in0.0 mm 0.00 in0.0 mm 0.00 in0.0 mm
03:44 PM 23.2°F-4.9°C 19.4°F-7.0°C 85% 0.9 mph W1.4 kmh W 4.9 mph7.9 kmh 29.83 in1010.2 mb 0.00 in0.0 mm 0.00 in0.0 mm 0.00 in0.0 mm
03:49 PM 22.8°F-5.1°C 18.7°F-7.4°C 84% 2.0 mph NW3.2 kmh NW 8.9 mph14.3 kmh 29.83 in1010.2 mb 0.00 in0.0 mm 0.00 in0.0 mm 0.00 in0.0 mm
03:54 PM 22.8°F-5.1°C 19.0°F-7.2°C 85% 2.0 mph S3.2 kmh S 6.0 mph9.7 kmh 29.83 in1010.2 mb 0.00 in0.0 mm 0.00 in0.0 mm 0.00 in0.0 mm
03:59 PM 22.6°F-5.2°C 18.9°F-7.3°C 85% 2.0 mph WSW3.2 kmh WSW 6.0 mph9.7 kmh 29.83 in1010.2 mb 0.00 in0.0 mm 0.00 in0.0 mm 0.00 in0.0 mm
04:04 PM 22.6°F-5.2°C 18.9°F-7.3°C 85% 0.9 mph NW1.4 kmh NW 6.9 mph11.1 kmh 29.83 in1010.2 mb 0.00 in0.0 mm 0.00 in0.0 mm 0.00 in0.0 mm
04:09 PM 22.6°F-5.2°C 18.5°F-7.5°C 84% 0.9 mph NW1.4 kmh NW 4.9 mph7.9 kmh 29.84 in1010.5 mb 0.00 in0.0 mm 0.00 in0.0 mm 0.00 in0.0 mm
04:14 PM 22.6°F-5.2°C 18.5°F-7.5°C 84% 2.0 mph WNW3.2 kmh WNW 8.1 mph13.0 kmh 29.84 in1010.5 mb 0.00 in0.0 mm 0.00 in0.0 mm 0.00 in0.0 mm
04:19 PM 22.5°F-5.3°C 18.3°F-7.6°C 84% 2.9 mph NNW4.7 kmh NNW 8.1 mph13.0 kmh 29.84 in1010.5 mb 0.00 in0.0 mm 0.00 in0.0 mm 0.00 in0.0 mm
04:24 PM 22.5°F-5.3°C 18.3°F-7.6°C 84% 2.0 mph SW3.2 kmh SW 6.0 mph9.7 kmh 29.85 in1010.8 mb 0.00 in0.0 mm 0.00 in0.0 mm 0.00 in0.0 mm
04:29 PM 22.6°F-5.2°C 18.9°F-7.3°C 85% 0.9 mph W1.4 kmh W 7.0 mph11.3 kmh 29.85 in1010.8 mb 0.00 in0.0 mm 0.00 in0.0 mm 0.00 in0.0 mm
04:34 PM 22.5°F-5.3°C 18.7°F-7.4°C 85% 0.9 mph NNW1.4 kmh NNW 6.0 mph9.7 kmh 29.86 in1011.2 mb 0.00 in0.0 mm 0.00 in0.0 mm 0.00 in0.0 mm
04:39 PM 22.5°F-5.3°C 18.7°F-7.4°C 85% 0.9 mph NNW1.4 kmh NNW 4.9 mph7.9 kmh 29.86 in1011.2 mb 0.00 in0.0 mm 0.00 in0.0 mm 0.00 in0.0 mm
04:44 PM 22.5°F-5.3°C 18.7°F-7.4°C 85% 0.9 mph WNW1.4 kmh WNW 4.9 mph7.9 kmh 29.86 in1011.2 mb 0.00 in0.0 mm 0.00 in0.0 mm 0.00 in0.0 mm
04:49 PM 22.3°F-5.4°C 18.5°F-7.5°C 85% 0.9 mph NW1.4 kmh NW 4.9 mph7.9 kmh 29.87 in1011.5 mb 0.00 in0.0 mm 0.00 in0.0 mm 0.00 in0.0 mm
04:54 PM 22.3°F-5.4°C 18.5°F-7.5°C 85% 0.9 mph NW1.4 kmh NW 6.0 mph9.7 kmh 29.87 in1011.5 mb 0.00 in0.0 mm 0.00 in0.0 mm 0.00 in0.0 mm
04:59 PM 22.1°F-5.5°C 18.3°F-7.6°C 85% 0.9 mph NW1.4 kmh NW 7.0 mph11.3 kmh 29.87 in1011.5 mb 0.00 in0.0 mm 0.00 in0.0 mm 0.00 in0.0 mm
05:04 PM 21.9°F-5.6°C 18.1°F-7.7°C 85% 2.0 mph W3.2 kmh W 8.1 mph13.0 kmh 29.88 in1011.9 mb 0.00 in0.0 mm 0.00 in0.0 mm 0.00 in0.0 mm
05:09 PM 21.9°F-5.6°C 18.1°F-7.7°C 85% 2.0 mph NW3.2 kmh NW 4.0 mph6.4 kmh 29.88 in1011.9 mb 0.00 in0.0 mm 0.00 in0.0 mm 0.00 in0.0 mm
05:14 PM 22.1°F-5.5°C 18.3°F-7.6°C 85% 0.9 mph NW1.4 kmh NW 2.9 mph4.7 kmh 29.89 in1012.2 mb 0.00 in0.0 mm 0.00 in0.0 mm 0.00 in0.0 mm
05:19 PM 22.1°F-5.5°C 18.3°F-7.6°C 85% 0.9 mph WNW1.4 kmh WNW 4.0 mph6.4 kmh 29.89 in1012.2 mb 0.00 in0.0 mm 0.00 in0.0 mm 0.00 in0.0 mm
05:24 PM 21.9°F-5.6°C 18.1°F-7.7°C 85% 0.9 mph NNW1.4 kmh NNW 5.0 mph8.0 kmh 29.89 in1012.2 mb 0.00 in0.0 mm 0.00 in0.0 mm 0.00 in0.0 mm
05:29 PM 21.7°F-5.7°C 18.0°F-7.8°C 85% 0.9 mph NNW1.4 kmh NNW 4.9 mph7.9 kmh 29.89 in1012.2 mb 0.00 in0.0 mm 0.00 in0.0 mm 0.00 in0.0 mm
05:34 PM 21.9°F-5.6°C 18.3°F-7.6°C 86% 0.9 mph WNW1.4 kmh WNW 8.0 mph12.9 kmh 29.89 in1012.2 mb 0.00 in0.0 mm 0.00 in0.0 mm 0.00 in0.0 mm
05:39 PM 21.7°F-5.7°C 18.1°F-7.7°C 86% 0.9 mph NW1.4 kmh NW 4.9 mph7.9 kmh 29.89 in1012.2 mb 0.00 in0.0 mm 0.00 in0.0 mm 0.00 in0.0 mm
05:44 PM 21.7°F-5.7°C 18.1°F-7.7°C 86% 0.9 mph W1.4 kmh W 2.0 mph3.2 kmh 29.89 in1012.2 mb 0.00 in0.0 mm 0.00 in0.0 mm 0.00 in0.0 mm
05:49 PM 21.7°F-5.7°C 18.1°F-7.7°C 86% 0.9 mph WNW1.4 kmh WNW 4.9 mph7.9 kmh 29.89 in1012.2 mb 0.00 in0.0 mm 0.00 in0.0 mm 0.00 in0.0 mm
05:54 PM 21.6°F-5.8°C 18.0°F-7.8°C 86% 0.9 mph NW1.4 kmh NW 4.9 mph7.9 kmh 29.90 in1012.5 mb 0.00 in0.0 mm 0.00 in0.0 mm 0.00 in0.0 mm
05:59 PM 21.6°F-5.8°C 18.0°F-7.8°C 86% 0.9 mph NW1.4 kmh NW 4.9 mph7.9 kmh 29.90 in1012.5 mb 0.00 in0.0 mm 0.00 in0.0 mm 0.00 in0.0 mm
06:04 PM 21.6°F-5.8°C 18.0°F-7.8°C 86% 0.9 mph N1.4 kmh N 6.0 mph9.7 kmh 29.90 in1012.5 mb 0.00 in0.0 mm 0.00 in0.0 mm 0.00 in0.0 mm
06:09 PM 21.6°F-5.8°C 18.0°F-7.8°C 86% 0.9 mph W1.4 kmh W 4.9 mph7.9 kmh 29.91 in1012.9 mb 0.00 in0.0 mm 0.00 in0.0 mm 0.00 in0.0 mm
06:14 PM 21.6°F-5.8°C 18.0°F-7.8°C 86% 0.9 mph NNW1.4 kmh NNW 4.9 mph7.9 kmh 29.92 in1013.2 mb 0.00 in0.0 mm 0.00 in0.0 mm 0.00 in0.0 mm
06:19 PM 21.6°F-5.8°C 18.0°F-7.8°C 86% 2.0 mph NNW3.2 kmh NNW 6.0 mph9.7 kmh 29.92 in1013.2 mb 0.00 in0.0 mm 0.00 in0.0 mm 0.00 in0.0 mm
06:24 PM 21.6°F-5.8°C 18.0°F-7.8°C 86% 2.0 mph NW3.2 kmh NW 8.1 mph13.0 kmh 29.92 in1013.2 mb 0.00 in0.0 mm 0.00 in0.0 mm 0.00 in0.0 mm
06:29 PM 21.6°F-5.8°C 18.3°F-7.6°C 87% 2.0 mph NNW3.2 kmh NNW 8.1 mph13.0 kmh 29.92 in1013.2 mb 0.00 in0.0 mm 0.00 in0.0 mm 0.00 in0.0 mm
06:34 PM 21.6°F-5.8°C 18.3°F-7.6°C 87% 2.0 mph W3.2 kmh W 6.9 mph11.1 kmh 29.92 in1013.2 mb 0.00 in0.0 mm 0.00 in0.0 mm 0.00 in0.0 mm
06:39 PM 21.6°F-5.8°C 18.3°F-7.6°C 87% 0.9 mph NNW1.4 kmh NNW 8.1 mph13.0 kmh 29.93 in1013.5 mb 0.00 in0.0 mm 0.00 in0.0 mm 0.00 in0.0 mm
06:44 PM 21.4°F-5.9°C 18.1°F-7.7°C 87% 0.9 mph N1.4 kmh N 6.9 mph11.1 kmh 29.93 in1013.5 mb 0.00 in0.0 mm 0.00 in0.0 mm 0.00 in0.0 mm
06:49 PM 21.4°F-5.9°C 18.1°F-7.7°C 87% 0.9 mph NE1.4 kmh NE 4.9 mph7.9 kmh 29.93 in1013.5 mb 0.00 in0.0 mm 0.00 in0.0 mm 0.00 in0.0 mm
06:54 PM 21.4°F-5.9°C 18.1°F-7.7°C 87% 0.9 mph NW1.4 kmh NW 4.0 mph6.4 kmh 29.92 in1013.2 mb 0.00 in0.0 mm 0.00 in0.0 mm 0.00 in0.0 mm
06:59 PM 21.4°F-5.9°C 18.1°F-7.7°C 87% 0.9 mph WNW1.4 kmh WNW 5.0 mph8.0 kmh 29.93 in1013.5 mb 0.00 in0.0 mm 0.00 in0.0 mm 0.00 in0.0 mm
07:04 PM 21.4°F-5.9°C 18.1°F-7.7°C 87% 0.9 mph NW1.4 kmh NW 4.9 mph7.9 kmh 29.93 in1013.5 mb 0.00 in0.0 mm 0.00 in0.0 mm 0.00 in0.0 mm
07:09 PM 21.2°F-6.0°C 18.0°F-7.8°C 87% 0.9 mph NNW1.4 kmh NNW 4.9 mph7.9 kmh 29.94 in1013.9 mb 0.00 in0.0 mm 0.00 in0.0 mm 0.00 in0.0 mm
07:14 PM 21.2°F-6.0°C 18.0°F-7.8°C 87% 0.9 mph NW1.4 kmh NW 4.9 mph7.9 kmh 29.94 in1013.9 mb 0.00 in0.0 mm 0.00 in0.0 mm 0.00 in0.0 mm
07:19 PM 21.2°F-6.0°C 18.0°F-7.8°C 87% 0.9 mph NW1.4 kmh NW 4.9 mph7.9 kmh 29.94 in1013.9 mb 0.00 in0.0 mm 0.00 in0.0 mm 0.00 in0.0 mm
07:24 PM 21.0°F-6.1°C 17.8°F-7.9°C 87% 0.9 mph NW1.4 kmh NW 6.9 mph11.1 kmh 29.95 in1014.2 mb 0.00 in0.0 mm 0.00 in0.0 mm 0.00 in0.0 mm
07:29 PM 21.0°F-6.1°C 17.8°F-7.9°C 87% 0.9 mph WNW1.4 kmh WNW 2.9 mph4.7 kmh 29.94 in1013.9 mb 0.00 in0.0 mm 0.00 in0.0 mm 0.00 in0.0 mm
07:35 PM 21.0°F-6.1°C 17.8°F-7.9°C 87% 0.9 mph NW1.4 kmh NW 4.0 mph6.4 kmh 29.95 in1014.2 mb 0.00 in0.0 mm 0.00 in0.0 mm 0.00 in0.0 mm
07:40 PM 21.0°F-6.1°C 17.8°F-7.9°C 87% 0.9 mph W1.4 kmh W 6.0 mph9.7 kmh 29.95 in1014.2 mb 0.00 in0.0 mm 0.00 in0.0 mm 0.00 in0.0 mm
07:45 PM 21.0°F-6.1°C 17.8°F-7.9°C 87% 0.9 mph WNW1.4 kmh WNW 4.9 mph7.9 kmh 29.95 in1014.2 mb 0.00 in0.0 mm 0.00 in0.0 mm 0.00 in0.0 mm
07:50 PM 21.0°F-6.1°C 17.8°F-7.9°C 87% 0.9 mph NNW1.4 kmh NNW 4.0 mph6.4 kmh 29.96 in1014.6 mb 0.00 in0.0 mm 0.00 in0.0 mm 0.00 in0.0 mm
07:55 PM 21.0°F-6.1°C 17.8°F-7.9°C 87% 0.9 mph NW1.4 kmh NW 4.0 mph6.4 kmh 29.95 in1014.2 mb 0.00 in0.0 mm 0.00 in0.0 mm 0.00 in0.0 mm
08:00 PM 21.0°F-6.1°C 17.8°F-7.9°C 87% 0.9 mph WNW1.4 kmh WNW 2.9 mph4.7 kmh 29.95 in1014.2 mb 0.00 in0.0 mm 0.00 in0.0 mm 0.00 in0.0 mm
08:05 PM 21.0°F-6.1°C 17.8°F-7.9°C 87% 0.9 mph NNW1.4 kmh NNW 5.0 mph8.0 kmh 29.95 in1014.2 mb 0.00 in0.0 mm 0.00 in0.0 mm 0.00 in0.0 mm
08:10 PM 21.0°F-6.1°C 17.8°F-7.9°C 87% 0.9 mph N1.4 kmh N 4.0 mph6.4 kmh 29.96 in1014.6 mb 0.00 in0.0 mm 0.00 in0.0 mm 0.00 in0.0 mm
08:15 PM 21.0°F-6.1°C 17.8°F-7.9°C 87% 0.9 mph WNW1.4 kmh WNW 2.9 mph4.7 kmh 29.95 in1014.2 mb 0.00 in0.0 mm 0.00 in0.0 mm 0.00 in0.0 mm
08:20 PM 21.0°F-6.1°C 17.8°F-7.9°C 87% 0.9 mph W1.4 kmh W 2.0 mph3.2 kmh 29.96 in1014.6 mb 0.00 in0.0 mm 0.00 in0.0 mm 0.00 in0.0 mm
08:25 PM 21.0°F-6.1°C 17.8°F-7.9°C 87% 0.9 mph W1.4 kmh W 5.0 mph8.0 kmh 29.96 in1014.6 mb 0.00 in0.0 mm 0.00 in0.0 mm 0.00 in0.0 mm
08:30 PM 21.0°F-6.1°C 17.8°F-7.9°C 87% 0.9 mph N1.4 kmh N 4.9 mph7.9 kmh 29.96 in1014.6 mb 0.00 in0.0 mm 0.00 in0.0 mm 0.00 in0.0 mm
08:35 PM 21.0°F-6.1°C 17.8°F-7.9°C 87% 0.9 mph W1.4 kmh W 2.9 mph4.7 kmh 29.96 in1014.6 mb 0.00 in0.0 mm 0.00 in0.0 mm 0.00 in0.0 mm
08:40 PM 21.2°F-6.0°C 17.6°F-8.0°C 86% 0.9 mph W1.4 kmh W 5.0 mph8.0 kmh 29.96 in1014.6 mb 0.00 in0.0 mm 0.00 in0.0 mm 0.00 in0.0 mm
08:45 PM 21.2°F-6.0°C 18.0°F-7.8°C 87% 0.9 mph NW1.4 kmh NW 4.0 mph6.4 kmh 29.97 in1014.9 mb 0.00 in0.0 mm 0.00 in0.0 mm 0.00 in0.0 mm
08:50 PM 21.2°F-6.0°C 17.6°F-8.0°C 86% 0.9 mph NW1.4 kmh NW 4.0 mph6.4 kmh 29.97 in1014.9 mb 0.00 in0.0 mm 0.00 in0.0 mm 0.00 in0.0 mm
08:55 PM 21.2°F-6.0°C 17.6°F-8.0°C 86% 0.9 mph NW1.4 kmh NW 5.0 mph8.0 kmh 29.97 in1014.9 mb 0.00 in0.0 mm 0.00 in0.0 mm 0.00 in0.0 mm
09:00 PM 21.4°F-5.9°C 17.8°F-7.9°C 86% 0.9 mph NW1.4 kmh NW 4.9 mph7.9 kmh 29.97 in1014.9 mb 0.00 in0.0 mm 0.00 in0.0 mm 0.00 in0.0 mm
09:05 PM 21.4°F-5.9°C 17.8°F-7.9°C 86% 2.0 mph NW3.2 kmh NW 9.0 mph14.5 kmh 29.97 in1014.9 mb 0.00 in0.0 mm 0.00 in0.0 mm 0.00 in0.0 mm
09:10 PM 21.4°F-5.9°C 17.8°F-7.9°C 86% 2.0 mph WSW3.2 kmh WSW 4.9 mph7.9 kmh 29.97 in1014.9 mb 0.00 in0.0 mm 0.00 in0.0 mm 0.00 in0.0 mm
09:15 PM 21.4°F-5.9°C 17.8°F-7.9°C 86% 0.9 mph N1.4 kmh N 4.9 mph7.9 kmh 29.97 in1014.9 mb 0.00 in0.0 mm 0.00 in0.0 mm 0.00 in0.0 mm
09:20 PM 21.4°F-5.9°C 17.8°F-7.9°C 86% 0.9 mph W1.4 kmh W 2.9 mph4.7 kmh 29.97 in1014.9 mb 0.00 in0.0 mm 0.00 in0.0 mm 0.00 in0.0 mm
09:25 PM 21.4°F-5.9°C 17.8°F-7.9°C 86% 0.9 mph NW1.4 kmh NW 5.0 mph8.0 kmh 29.97 in1014.9 mb 0.00 in0.0 mm 0.00 in0.0 mm 0.00 in0.0 mm
09:30 PM 21.4°F-5.9°C 17.8°F-7.9°C 86% 0.9 mph NW1.4 kmh NW 4.0 mph6.4 kmh 29.98 in1015.2 mb 0.00 in0.0 mm 0.00 in0.0 mm 0.00 in0.0 mm
09:35 PM 21.2°F-6.0°C 17.6°F-8.0°C 86% 0.9 mph N1.4 kmh N 5.0 mph8.0 kmh 29.98 in1015.2 mb 0.00 in0.0 mm 0.00 in0.0 mm 0.00 in0.0 mm
09:40 PM 21.0°F-6.1°C 17.2°F-8.2°C 85% 0.9 mph WNW1.4 kmh WNW 4.0 mph6.4 kmh 29.98 in1015.2 mb 0.00 in0.0 mm 0.00 in0.0 mm 0.00 in0.0 mm
09:45 PM 21.0°F-6.1°C 17.2°F-8.2°C 85% 0.9 mph NNW1.4 kmh NNW 5.0 mph8.0 kmh 29.99 in1015.6 mb 0.00 in0.0 mm 0.00 in0.0 mm 0.00 in0.0 mm
09:50 PM 20.8°F-6.2°C 16.7°F-8.5°C 84% 2.0 mph WNW3.2 kmh WNW 8.0 mph12.9 kmh 29.99 in1015.6 mb 0.00 in0.0 mm 0.00 in0.0 mm 0.00 in0.0 mm
09:55 PM 20.7°F-6.3°C 16.5°F-8.6°C 84% 2.0 mph NW3.2 kmh NW 6.0 mph9.7 kmh 29.99 in1015.6 mb 0.00 in0.0 mm 0.00 in0.0 mm 0.00 in0.0 mm
10:00 PM 20.7°F-6.3°C 16.5°F-8.6°C 84% 2.0 mph N3.2 kmh N 4.9 mph7.9 kmh 30.00 in1015.9 mb 0.00 in0.0 mm 0.00 in0.0 mm 0.00 in0.0 mm
10:05 PM 20.7°F-6.3°C 16.5°F-8.6°C 84% 0.9 mph WNW1.4 kmh WNW 4.0 mph6.4 kmh 30.00 in1015.9 mb 0.00 in0.0 mm 0.00 in0.0 mm 0.00 in0.0 mm
10:10 PM 20.5°F-6.4°C 16.3°F-8.7°C 84% 0.9 mph WSW1.4 kmh WSW 4.0 mph6.4 kmh 30.00 in1015.9 mb 0.00 in0.0 mm 0.00 in0.0 mm 0.00 in0.0 mm
10:15 PM 20.5°F-6.4°C 16.3°F-8.7°C 84% 0.9 mph NNW1.4 kmh NNW 4.9 mph7.9 kmh 30.00 in1015.9 mb 0.00 in0.0 mm 0.00 in0.0 mm 0.00 in0.0 mm
10:20 PM 20.5°F-6.4°C 16.3°F-8.7°C 84% 0.9 mph WNW1.4 kmh WNW 4.0 mph6.4 kmh 30.00 in1015.9 mb 0.00 in0.0 mm 0.00 in0.0 mm 0.00 in0.0 mm
10:25 PM 20.3°F-6.5°C 16.0°F-8.9°C 83% 0.9 mph NNW1.4 kmh NNW 5.0 mph8.0 kmh 30.00 in1015.9 mb 0.00 in0.0 mm 0.00 in0.0 mm 0.00 in0.0 mm
10:30 PM 20.1°F-6.6°C 15.8°F-9.0°C 83% 0.9 mph NW1.4 kmh NW 6.0 mph9.7 kmh 30.00 in1015.9 mb 0.00 in0.0 mm 0.00 in0.0 mm 0.00 in0.0 mm
10:35 PM 20.1°F-6.6°C 16.0°F-8.9°C 84% 0.9 mph WNW1.4 kmh WNW 6.0 mph9.7 kmh 30.00 in1015.9 mb 0.00 in0.0 mm 0.00 in0.0 mm 0.00 in0.0 mm
10:40 PM 20.1°F-6.6°C 15.8°F-9.0°C 83% 0.9 mph N1.4 kmh N 10.1 mph16.3 kmh 30.01 in1016.3 mb 0.00 in0.0 mm 0.00 in0.0 mm 0.00 in0.0 mm
10:45 PM 19.9°F-6.7°C 15.6°F-9.1°C 83% 2.0 mph NNW3.2 kmh NNW 6.9 mph11.1 kmh 30.00 in1015.9 mb 0.00 in0.0 mm 0.00 in0.0 mm 0.00 in0.0 mm
10:50 PM 19.9°F-6.7°C 15.6°F-9.1°C 83% 2.0 mph NW3.2 kmh NW 4.9 mph7.9 kmh 30.00 in1015.9 mb 0.00 in0.0 mm 0.00 in0.0 mm 0.00 in0.0 mm
10:55 PM 19.9°F-6.7°C 15.6°F-9.1°C 83% 2.0 mph WNW3.2 kmh WNW 6.9 mph11.1 kmh 30.00 in1015.9 mb 0.00 in0.0 mm 0.00 in0.0 mm 0.00 in0.0 mm
11:00 PM 19.9°F-6.7°C 15.6°F-9.1°C 83% 0.9 mph NNW1.4 kmh NNW 4.0 mph6.4 kmh 30.00 in1015.9 mb 0.00 in0.0 mm 0.00 in0.0 mm 0.00 in0.0 mm
11:05 PM 19.8°F-6.8°C 15.4°F-9.2°C 83% 0.9 mph NW1.4 kmh NW 4.0 mph6.4 kmh 30.01 in1016.3 mb 0.00 in0.0 mm 0.00 in0.0 mm 0.00 in0.0 mm
11:10 PM 19.8°F-6.8°C 15.4°F-9.2°C 83% 2.0 mph NNW3.2 kmh NNW 6.0 mph9.7 kmh 30.00 in1015.9 mb 0.00 in0.0 mm 0.00 in0.0 mm 0.00 in0.0 mm
11:15 PM 19.8°F-6.8°C 15.4°F-9.2°C 83% 0.9 mph W1.4 kmh W 4.0 mph6.4 kmh 30.00 in1015.9 mb 0.00 in0.0 mm 0.00 in0.0 mm 0.00 in0.0 mm
11:20 PM 19.6°F-6.9°C 15.3°F-9.3°C 83% 0.9 mph N1.4 kmh N 6.0 mph9.7 kmh 30.01 in1016.3 mb 0.00 in0.0 mm 0.00 in0.0 mm 0.00 in0.0 mm
11:25 PM 19.6°F-6.9°C 15.3°F-9.3°C 83% 0.9 mph NNW1.4 kmh NNW 2.0 mph3.2 kmh 30.01 in1016.3 mb 0.00 in0.0 mm 0.00 in0.0 mm 0.00 in0.0 mm
11:30 PM 19.6°F-6.9°C 15.3°F-9.3°C 83% Calm Calm 2.0 mph3.2 kmh 30.01 in1016.3 mb 0.00 in0.0 mm 0.00 in0.0 mm 0.00 in0.0 mm
11:35 PM 19.6°F-6.9°C 15.3°F-9.3°C 83% Calm Calm 2.0 mph3.2 kmh 30.02 in1016.6 mb 0.00 in0.0 mm 0.00 in0.0 mm 0.00 in0.0 mm
11:40 PM 19.4°F-7.0°C 14.7°F-9.6°C 82% Calm Calm 3.0 mph4.8 kmh 30.02 in1016.6 mb 0.00 in0.0 mm 0.00 in0.0 mm 0.00 in0.0 mm
11:45 PM 19.4°F-7.0°C 15.1°F-9.4°C 83% Calm Calm 2.0 mph3.2 kmh 30.02 in1016.6 mb 0.00 in0.0 mm 0.00 in0.0 mm 0.00 in0.0 mm
11:50 PM 19.2°F-7.1°C 14.7°F-9.6°C 82% 0.9 mph NNW1.4 kmh NNW 4.9 mph7.9 kmh 30.02 in1016.6 mb 0.00 in0.0 mm 0.00 in0.0 mm 0.00 in0.0 mm
11:55 PM 19.2°F-7.1°C 14.9°F-9.5°C 83% 0.9 mph N1.4 kmh N 4.0 mph6.4 kmh 30.02 in1016.6 mb 0.00 in0.0 mm 0.00 in0.0 mm 0.00 in0.0 mm